Brookline, MA

2:06 AM EDT on May 23, 2017 (GMT -0400)
Fisher Hill | | Change Station

Elev 177 ft 42.33 °N, 71.14 °W | Updated 4 seconds ago

Overcast
Overcast
51.0 °F
Feels Like 51.0 °F
N
0.0
Wind Variable Wind from SSE
Gusts 0.0 mph

Today
High -- | Low -- °F
--% Chance of Precip.
Yesterday
High -- | Low -- °F
Precip. -- in
Pressure 29.94 in
Visibility 9.0 miles
Clouds Mostly Cloudy 400 ft
Overcast 1100 ft
Dew Point 50 °F
Humidity 98%
Rainfall 0.00 in
Snow Depth Not available.
5:15 AM 8:07 PM
Waning Crescent, 10% visible
METAR KBOS 230554Z 35005KT 9SM -RA BKN004 OVC011 12/11 A2994 RMK AO2 DZE11RAB41 SLP137 P0000 60005 T01170111 10117 20111 58018
Pressure 29.94 in
Visibility 9.0 miles
Clouds Mostly Cloudy 400 ft
Overcast 1100 ft
Dew Point 50 °F
Humidity 98%
Rainfall 0.00 in
Snow Depth Not available.
5:15 AM 8:07 PM
Waning Crescent, 10% visible
METAR KBOS 230554Z 35005KT 9SM -RA BKN004 OVC011 12/11 A2994 RMK AO2 DZE11RAB41 SLP137 P0000 60005 T01170111 10117 20111 58018

Get Severe Weather Alerts

Thanks for signing up!

Be on the lookout for a verification email in your inbox.

You'll start receiving the daily forecast at 6 AM.

×

10-Day Weather Forecast

Almanac

Astronomy

May. 23, 2017 Rise Set
Actual Time
Civil Twilight
Nautical Twilight
Astronomical Twilight
Moon
Length of Visible Light
Length of Day
Tomorrow will be .
, % of the Moon is Illuminated

Today's Extremes

State Highs State Lows

Community

WunderPhotos

Category 6

Welcome to Category 6. This is the collective home for Weather Underground's featured writeups by Dr. Jeff Masters (right), Bob Henson (left), Chris Burt, and other regular contributors.

Nearby

Air Quality

  Air Quality AQ Index Pollutant
Not available.

Snow Depth

Station Depth Elevation

Earthquake Activity

City Distance Mag. Time & Date
Minimum magnitude displayed is 2.5.

Coastal Water Temperatures

Place Temperature

Stations

Nearby Weather Stations

Station Location Temp. Windchill Dew Point Humidity Wind Precip. Elev Updated Type
                   

Watches & Warnings

There are currently no watches in effect.